Time;durP1;ratioP1;P1;durP2;ratioP2;P2;SDS_P1;SDS_P2;PMS_P1;PMS_P2;Temp;Humidity;BMP_temperature;BMP_pressure;BME280_temperature;BME280_humidity;BME280_pressure;Samples;Min_cycle;Max_cycle;Signal;HPM_P1;HPM_P2
2023/06/12 00:00:53;;;;;;;;;;;16.60;93.00;;;;;;5069915;28;19915;-85
2023/06/12 00:03:19;;;;;;;;;;;16.50;93.00;;;;;;5070558;28;20248;-84
2023/06/12 00:05:45;;;;;;;;;;;16.40;93.50;;;;;;5052787;28;20723;-84
2023/06/12 00:08:13;;;;;;;;;;;16.40;93.80;;;;;;5074567;28;19916;-85
2023/06/12 00:10:40;;;;;;;;;;;16.30;94.10;;;;;;5061613;28;19912;-85
2023/06/12 00:13:24;;;;;;;;;;;16.20;94.70;;;;;;5072095;28;19908;-84
2023/06/12 00:15:50;;;;;;;;;;;16.20;95.20;;;;;;5073915;28;19908;-85
2023/06/12 00:18:16;;;;;;;;;;;16.10;95.50;;;;;;5056730;28;19905;-85
2023/06/12 00:20:47;;;;;;;;;;;16.00;95.80;;;;;;5073354;28;19915;-85
2023/06/12 00:23:35;;;;;;;;;;;16.00;96.20;;;;;;5057252;28;20736;-85
2023/06/12 00:26:01;;;;;;;;;;;16.00;96.70;;;;;;5084004;28;20264;-85
2023/06/12 00:28:26;;;;;;;;;;;15.90;97.30;;;;;;5057416;28;19909;-84
2023/06/12 00:30:52;;;;;;;;;;;15.90;97.80;;;;;;5065042;28;19912;-84
2023/06/12 00:33:18;;;;;;;;;;;15.80;98.00;;;;;;5072257;28;19920;-85
2023/06/12 00:35:44;;;;;;;;;;;15.80;98.30;;;;;;5089204;28;19897;-85
2023/06/12 00:38:10;;;;;;;;;;;15.80;98.70;;;;;;5072304;28;19908;-84
2023/06/12 00:40:37;;;;;;;;;;;15.90;98.90;;;;;;5056068;28;20014;-84
2023/06/12 00:43:02;;;;;;;;;;;15.90;99.00;;;;;;5073073;28;19999;-84
2023/06/12 00:45:28;;;;;;;;;;;15.80;99.10;;;;;;5056155;28;20493;-85
2023/06/12 00:47:56;;;;;;;;;;;15.80;99.50;;;;;;5053793;28;19908;-84
2023/06/12 00:50:26;;;;;;;;;;;15.80;99.70;;;;;;5070944;28;19964;-85
2023/06/12 00:52:52;;;;;;;;;;;15.80;99.70;;;;;;5072247;28;20399;-85
2023/06/12 00:55:17;;;;;;;;;;;15.80;99.90;;;;;;5056335;28;19908;-85
2023/06/12 00:57:43;;;;;;;;;;;15.80;99.90;;;;;;5072836;28;20410;-84
2023/06/12 01:00:11;;;;;;;;;;;15.80;99.90;;;;;;5068911;28;19999;-84
2023/06/12 01:09:34;;;;;;;;;;;15.80;99.90;;;;;;5081639;28;19915;-84
2023/06/12 01:12:01;;;;;;;;;;;15.80;99.90;;;;;;5089106;28;20197;-84
2023/06/12 01:14:26;;;;;;;;;;;15.80;99.90;;;;;;5078256;28;19920;-84
2023/06/12 01:16:52;;;;;;;;;;;15.80;99.90;;;;;;5073983;28;19908;-84
2023/06/12 01:19:19;;;;;;;;;;;15.70;99.90;;;;;;5073456;28;19912;-85
2023/06/12 01:21:48;;;;;;;;;;;15.70;99.90;;;;;;5083004;28;19915;-84
2023/06/12 01:24:40;;;;;;;;;;;15.80;99.90;;;;;;5070655;28;19908;-84
2023/06/12 01:27:09;;;;;;;;;;;15.90;99.90;;;;;;5050394;28;19919;-85
2023/06/12 01:33:05;;;;;;;;;;;15.70;99.90;;;;;;5063829;28;19938;-85
2023/06/12 01:35:36;;;;;;;;;;;15.60;99.90;;;;;;5072519;28;19909;-84
2023/06/12 01:38:08;;;;;;;;;;;15.60;99.90;;;;;;5056253;28;19916;-85
2023/06/12 01:40:34;;;;;;;;;;;15.60;99.90;;;;;;5072861;28;19908;-84
2023/06/12 01:42:59;;;;;;;;;;;15.50;99.90;;;;;;5072763;28;19910;-85
2023/06/12 01:45:26;;;;;;;;;;;15.60;99.90;;;;;;5073040;28;19948;-85
2023/06/12 01:47:52;;;;;;;;;;;15.60;99.90;;;;;;5072312;28;19935;-85
2023/06/12 01:50:20;;;;;;;;;;;15.60;99.90;;;;;;5056510;28;19915;-84
2023/06/12 01:52:48;;;;;;;;;;;15.60;99.90;;;;;;5072909;28;19950;-85
2023/06/12 01:55:14;;;;;;;;;;;15.50;99.90;;;;;;5056271;28;19934;-85
2023/06/12 01:57:48;;;;;;;;;;;15.60;99.90;;;;;;5073599;28;19908;-84
2023/06/12 02:00:40;;;;;;;;;;;15.60;99.90;;;;;;5056243;28;20015;-85
2023/06/12 02:03:07;;;;;;;;;;;15.60;99.90;;;;;;5068335;28;19930;-84
2023/06/12 02:05:33;;;;;;;;;;;15.50;99.90;;;;;;5080071;28;20011;-84
2023/06/12 02:07:58;;;;;;;;;;;15.50;99.90;;;;;;5072085;28;20325;-84
2023/06/12 02:10:24;;;;;;;;;;;15.50;99.90;;;;;;5072298;28;20537;-85
2023/06/12 02:12:50;;;;;;;;;;;15.40;99.90;;;;;;5071821;28;19909;-84
2023/06/12 02:15:16;;;;;;;;;;;15.40;99.90;;;;;;5055498;28;20102;-83
2023/06/12 02:17:41;;;;;;;;;;;15.30;99.90;;;;;;5055546;28;19968;-85
2023/06/12 02:20:07;;;;;;;;;;;15.30;99.90;;;;;;5055140;28;20002;-85
2023/06/12 02:22:33;;;;;;;;;;;15.30;99.90;;;;;;5072334;28;19919;-84
2023/06/12 02:25:00;;;;;;;;;;;15.30;99.90;;;;;;5055092;28;20252;-84
2023/06/12 02:27:27;;;;;;;;;;;15.30;99.90;;;;;;5054923;28;20659;-85
2023/06/12 02:29:52;;;;;;;;;;;15.30;99.90;;;;;;5071655;28;19909;-85
2023/06/12 02:32:18;;;;;;;;;;;15.30;99.90;;;;;;5055212;28;19916;-84
2023/06/12 02:34:44;;;;;;;;;;;15.20;99.90;;;;;;5072402;28;19957;-85
2023/06/12 02:37:10;;;;;;;;;;;15.20;99.90;;;;;;5071613;28;19996;-84
2023/06/12 02:39:36;;;;;;;;;;;15.10;99.90;;;;;;5055609;28;20303;-84
2023/06/12 02:42:03;;;;;;;;;;;15.00;99.90;;;;;;5072379;28;20006;-84
2023/06/12 02:44:29;;;;;;;;;;;14.90;99.90;;;;;;5072166;28;20354;-84
2023/06/12 02:46:59;;;;;;;;;;;15.00;99.90;;;;;;5055410;28;20011;-84
2023/06/12 02:49:30;;;;;;;;;;;14.90;99.90;;;;;;5056163;28;19908;-85
2023/06/12 02:51:57;;;;;;;;;;;15.00;99.90;;;;;;5071928;28;19901;-84
2023/06/12 02:54:23;;;;;;;;;;;14.90;99.90;;;;;;5054914;28;20326;-83
2023/06/12 02:56:49;;;;;;;;;;;14.90;99.90;;;;;;5070822;28;19908;-84
2023/06/12 02:59:16;;;;;;;;;;;14.70;99.90;;;;;;5072243;28;19915;-83
2023/06/12 03:01:45;;;;;;;;;;;14.70;99.90;;;;;;5075397;28;19916;-84
2023/06/12 03:04:19;;;;;;;;;;;14.70;99.90;;;;;;5060209;28;19912;-84
2023/06/12 03:06:45;;;;;;;;;;;14.70;99.90;;;;;;5075484;28;19909;-84
2023/06/12 03:09:11;;;;;;;;;;;14.60;99.90;;;;;;5059106;28;20261;-83
2023/06/12 03:11:37;;;;;;;;;;;14.60;99.90;;;;;;5074649;28;19913;-84
2023/06/12 03:14:04;;;;;;;;;;;14.60;99.90;;;;;;5057884;28;19909;-84
2023/06/12 03:16:30;;;;;;;;;;;14.50;99.90;;;;;;5075253;28;20416;-84
2023/06/12 03:18:57;;;;;;;;;;;14.50;99.90;;;;;;5050866;28;19995;-82
2023/06/12 03:21:22;;;;;;;;;;;14.50;99.90;;;;;;5073875;28;20413;-82
2023/06/12 03:23:48;;;;;;;;;;;14.60;99.90;;;;;;5066047;28;19916;-81
2023/06/12 03:26:14;;;;;;;;;;;14.50;99.90;;;;;;5073979;28;20364;-81
2023/06/12 03:28:40;;;;;;;;;;;14.50;99.90;;;;;;5073922;28;19909;-82
2023/06/12 03:31:05;;;;;;;;;;;14.50;99.90;;;;;;5074297;28;20373;-81
2023/06/12 03:33:34;;;;;;;;;;;14.40;99.90;;;;;;5057649;28;19966;-81
2023/06/12 03:36:03;;;;;;;;;;;14.40;99.90;;;;;;5091090;28;19916;-82
2023/06/12 03:38:29;;;;;;;;;;;14.40;99.90;;;;;;5074451;28;19924;-82
2023/06/12 03:40:54;;;;;;;;;;;14.40;99.90;;;;;;5074796;28;20321;-82
2023/06/12 03:43:20;;;;;;;;;;;14.40;99.90;;;;;;5057906;28;19923;-82
2023/06/12 03:45:46;;;;;;;;;;;14.40;99.90;;;;;;5074302;28;19915;-82
2023/06/12 03:48:11;;;;;;;;;;;14.40;99.90;;;;;;5074110;28;19920;-81
2023/06/12 03:50:37;;;;;;;;;;;14.40;99.90;;;;;;5074327;28;19912;-81
2023/06/12 03:53:03;;;;;;;;;;;14.40;99.90;;;;;;5056690;28;19912;-82
2023/06/12 03:55:29;;;;;;;;;;;14.40;99.90;;;;;;5074278;28;19947;-82
2023/06/12 03:57:55;;;;;;;;;;;14.50;99.90;;;;;;5073957;28;19908;-82
2023/06/12 04:00:21;;;;;;;;;;;14.50;99.90;;;;;;5075430;28;20573;-82
2023/06/12 04:02:48;;;;;;;;;;;14.50;99.90;;;;;;5056924;28;20007;-82
2023/06/12 04:05:20;;;;;;;;;;;14.50;99.90;;;;;;5057659;28;19922;-81
2023/06/12 04:07:46;;;;;;;;;;;14.50;99.90;;;;;;5073608;28;20268;-81
2023/06/12 04:10:12;;;;;;;;;;;14.50;99.90;;;;;;5057146;28;19920;-81
2023/06/12 04:12:38;;;;;;;;;;;14.50;99.90;;;;;;5056018;28;20012;-82
2023/06/12 04:15:05;;;;;;;;;;;14.50;99.90;;;;;;5057446;28;19904;-81
2023/06/12 04:17:32;;;;;;;;;;;14.60;99.90;;;;;;5073274;28;20271;-81
2023/06/12 04:19:57;;;;;;;;;;;14.60;99.90;;;;;;5073236;28;20368;-81
2023/06/12 04:22:25;;;;;;;;;;;14.60;99.90;;;;;;5074049;28;19918;-81
2023/06/12 04:24:52;;;;;;;;;;;14.70;99.90;;;;;;5073528;28;19908;-81
2023/06/12 04:30:46;;;;;;;;;;;14.80;99.90;;;;;;5074481;28;20318;-81
2023/06/12 04:33:12;;;;;;;;;;;14.90;99.90;;;;;;5072991;28;19908;-81
2023/06/12 04:35:45;;;;;;;;;;;15.00;99.90;;;;;;5072914;28;20526;-81
2023/06/12 04:38:19;;;;;;;;;;;15.00;99.90;;;;;;5075034;28;19908;-81
2023/06/12 04:40:45;;;;;;;;;;;15.10;99.90;;;;;;5072806;28;19919;-81
2023/06/12 04:43:11;;;;;;;;;;;15.20;99.90;;;;;;5072792;28;20360;-81
2023/06/12 04:45:41;;;;;;;;;;;15.30;99.90;;;;;;5073324;28;19908;-82
2023/06/12 04:48:08;;;;;;;;;;;15.40;99.90;;;;;;5073063;28;19958;-82
2023/06/12 04:50:36;;;;;;;;;;;15.50;99.90;;;;;;5073001;28;19998;-82
2023/06/12 04:53:02;;;;;;;;;;;15.50;99.90;;;;;;5055855;28;19978;-82
2023/06/12 04:55:28;;;;;;;;;;;15.60;99.90;;;;;;5073198;28;19908;-82
2023/06/12 04:57:55;;;;;;;;;;;15.60;99.90;;;;;;5056345;28;19916;-82
2023/06/12 05:00:22;;;;;;;;;;;15.70;99.90;;;;;;5072982;28;19999;-82
2023/06/12 05:02:49;;;;;;;;;;;15.80;99.90;;;;;;5073579;28;20043;-82
2023/06/12 05:05:15;;;;;;;;;;;15.90;99.90;;;;;;5073926;28;19916;-82
2023/06/12 05:07:45;;;;;;;;;;;16.00;99.90;;;;;;5071783;28;19999;-82
2023/06/12 05:10:11;;;;;;;;;;;16.10;99.90;;;;;;5072350;28;19918;-82
2023/06/12 05:12:36;;;;;;;;;;;16.20;99.90;;;;;;5055426;28;20681;-82
2023/06/12 05:15:03;;;;;;;;;;;16.30;99.90;;;;;;5089481;28;20629;-82
2023/06/12 05:17:29;;;;;;;;;;;16.40;99.90;;;;;;5055590;28;19927;-83
2023/06/12 05:19:55;;;;;;;;;;;16.50;99.90;;;;;;5072227;28;20608;-82
2023/06/12 05:22:21;;;;;;;;;;;16.60;99.90;;;;;;5071324;28;19913;-82
2023/06/12 05:24:46;;;;;;;;;;;16.70;99.90;;;;;;5062960;28;19912;-82
2023/06/12 05:27:12;;;;;;;;;;;16.80;99.90;;;;;;5071470;28;20355;-83
2023/06/12 05:29:38;;;;;;;;;;;16.90;99.90;;;;;;5064722;28;19913;-82
2023/06/12 05:32:05;;;;;;;;;;;17.10;99.90;;;;;;5073342;28;19913;-82
2023/06/12 05:34:32;;;;;;;;;;;17.20;99.90;;;;;;5063152;28;19908;-82
2023/06/12 05:36:58;;;;;;;;;;;17.30;99.90;;;;;;5068485;28;19962;-82
2023/06/12 05:39:26;;;;;;;;;;;17.40;99.90;;;;;;5065962;28;19923;-83
2023/06/12 05:41:52;;;;;;;;;;;17.60;99.90;;;;;;5071298;28;20344;-82
2023/06/12 05:44:17;;;;;;;;;;;17.70;99.90;;;;;;5054605;28;19908;-82
2023/06/12 05:46:43;;;;;;;;;;;17.80;99.90;;;;;;5050852;28;20364;-82
2023/06/12 05:49:09;;;;;;;;;;;17.90;99.90;;;;;;5068147;28;19915;-83
2023/06/12 05:51:35;;;;;;;;;;;18.00;99.90;;;;;;5048571;28;19918;-82
2023/06/12 05:54:01;;;;;;;;;;;18.00;99.90;;;;;;5071306;28;19965;-82
2023/06/12 05:56:27;;;;;;;;;;;18.10;99.90;;;;;;5052396;28;19908;-83
2023/06/12 05:58:54;;;;;;;;;;;18.20;99.90;;;;;;5068417;28;19909;-82
2023/06/12 06:01:24;;;;;;;;;;;18.20;99.90;;;;;;5070907;28;19912;-82
2023/06/12 06:03:55;;;;;;;;;;;18.30;99.90;;;;;;5051444;28;19909;-82
2023/06/12 06:06:21;;;;;;;;;;;18.40;99.90;;;;;;5070878;28;19942;-82
2023/06/12 06:08:47;;;;;;;;;;;18.40;99.90;;;;;;5053673;28;19913;-82
2023/06/12 06:11:13;;;;;;;;;;;18.50;99.90;;;;;;5068472;28;19912;-83
2023/06/12 06:13:42;;;;;;;;;;;18.50;99.90;;;;;;5054766;28;20379;-82
2023/06/12 06:16:10;;;;;;;;;;;18.60;99.90;;;;;;5059691;28;19969;-82
2023/06/12 06:18:37;;;;;;;;;;;18.70;99.90;;;;;;5052414;28;19952;-83
2023/06/12 06:21:03;;;;;;;;;;;18.80;99.90;;;;;;5070702;28;19915;-82
2023/06/12 06:23:29;;;;;;;;;;;18.90;99.90;;;;;;5052304;28;20487;-83
2023/06/12 06:25:55;;;;;;;;;;;18.90;99.90;;;;;;5072060;28;20664;-83
2023/06/12 06:28:23;;;;;;;;;;;19.00;99.90;;;;;;5069022;28;19912;-83
2023/06/12 06:30:49;;;;;;;;;;;19.00;99.90;;;;;;5054337;28;20387;-83
2023/06/12 06:33:15;;;;;;;;;;;19.00;99.90;;;;;;5069909;28;19962;-83
2023/06/12 06:35:41;;;;;;;;;;;19.10;99.90;;;;;;5058605;28;19915;-83
2023/06/12 06:38:08;;;;;;;;;;;19.10;99.90;;;;;;5058327;28;19908;-82
2023/06/12 06:40:34;;;;;;;;;;;19.10;99.90;;;;;;5055810;28;19909;-82
2023/06/12 06:43:01;;;;;;;;;;;19.10;99.90;;;;;;5069812;28;19909;-82
2023/06/12 06:45:34;;;;;;;;;;;19.20;99.90;;;;;;5072813;28;19999;-81
2023/06/12 06:48:00;;;;;;;;;;;19.30;99.90;;;;;;5073113;28;19947;-81
2023/06/12 06:50:26;;;;;;;;;;;19.40;99.90;;;;;;5072359;28;20327;-82
2023/06/12 06:52:52;;;;;;;;;;;19.50;99.90;;;;;;5067428;28;19972;-82
2023/06/12 06:55:18;;;;;;;;;;;19.50;99.90;;;;;;5051944;28;19951;-82
2023/06/12 06:57:44;;;;;;;;;;;19.50;99.90;;;;;;5070592;28;19909;-82
2023/06/12 07:00:11;;;;;;;;;;;19.60;99.90;;;;;;5053934;28;19923;-83
2023/06/12 07:02:40;;;;;;;;;;;19.60;99.90;;;;;;5072184;28;19908;-82
2023/06/12 07:05:08;;;;;;;;;;;19.60;99.90;;;;;;5069367;28;19916;-82
2023/06/12 07:07:35;;;;;;;;;;;19.60;99.90;;;;;;5069389;28;19909;-83
2023/06/12 07:10:00;;;;;;;;;;;19.80;99.90;;;;;;5069052;28;19909;-83
2023/06/12 07:12:27;;;;;;;;;;;20.20;99.90;;;;;;5072158;28;20376;-83
2023/06/12 07:14:53;;;;;;;;;;;21.40;99.90;;;;;;5086093;28;20532;-83
2023/06/12 07:17:20;;;;;;;;;;;22.60;99.90;;;;;;5052734;28;20451;-83
2023/06/12 07:19:47;;;;;;;;;;;24.00;99.90;;;;;;5067342;28;19912;-83
2023/06/12 07:22:13;;;;;;;;;;;24.80;99.90;;;;;;5067852;28;19991;-83
2023/06/12 07:24:38;;;;;;;;;;;25.10;99.90;;;;;;5063940;28;20375;-83
2023/06/12 07:27:04;;;;;;;;;;;25.30;99.90;;;;;;5072889;28;19999;-83
2023/06/12 07:29:30;;;;;;;;;;;26.50;99.90;;;;;;5066110;28;20003;-84
2023/06/12 07:31:56;;;;;;;;;;;27.10;99.20;;;;;;5070790;28;20375;-83
2023/06/12 07:34:22;;;;;;;;;;;26.90;98.00;;;;;;5072583;28;19905;-83
2023/06/12 07:36:47;;;;;;;;;;;26.80;97.90;;;;;;5073275;28;19978;-83
2023/06/12 07:39:41;;;;;;;;;;;26.20;97.80;;;;;;5068889;28;19974;-82
2023/06/12 07:42:09;;;;;;;;;;;24.60;99.20;;;;;;5069583;28;19916;-82
2023/06/12 07:44:37;;;;;;;;;;;23.20;99.90;;;;;;5057201;28;20003;-82
2023/06/12 07:47:03;;;;;;;;;;;22.20;99.90;;;;;;5068807;28;20256;-82
2023/06/12 07:49:30;;;;;;;;;;;21.60;99.90;;;;;;5064399;28;20011;-82
2023/06/12 07:51:56;;;;;;;;;;;21.30;99.90;;;;;;5073181;28;19996;-83
2023/06/12 07:54:21;;;;;;;;;;;21.20;99.90;;;;;;5060744;28;19924;-82
2023/06/12 07:56:50;;;;;;;;;;;21.40;99.90;;;;;;5074184;28;20621;-82
2023/06/12 07:59:16;;;;;;;;;;;22.30;99.90;;;;;;5060187;28;20271;-83
2023/06/12 08:01:48;;;;;;;;;;;23.90;99.90;;;;;;5084295;28;19915;-83
2023/06/12 08:04:17;;;;;;;;;;;25.20;99.90;;;;;;5073717;28;20411;-83
2023/06/12 08:06:44;;;;;;;;;;;26.60;99.90;;;;;;5056952;28;19943;-82
2023/06/12 08:09:10;;;;;;;;;;;27.40;97.90;;;;;;5073413;28;19915;-83
2023/06/12 08:11:36;;;;;;;;;;;27.10;96.80;;;;;;5056663;28;19912;-82
2023/06/12 08:14:03;;;;;;;;;;;27.70;96.70;;;;;;5072998;28;19916;-83
2023/06/12 08:16:50;;;;;;;;;;;27.50;96.10;;;;;;5056944;28;19919;-83
2023/06/12 08:19:16;;;;;;;;;;;28.30;94.90;;;;;;5092120;28;20273;-83
2023/06/12 08:21:42;;;;;;;;;;;28.80;93.10;;;;;;5072778;28;20015;-83
2023/06/12 08:24:11;;;;;;;;;;;28.90;91.90;;;;;;5072902;28;19916;-83
2023/06/12 08:26:57;;;;;;;;;;;28.50;91.50;;;;;;5056655;28;19980;-83
2023/06/12 08:29:23;;;;;;;;;;;29.00;91.40;;;;;;5077226;28;19916;-83
2023/06/12 08:31:49;;;;;;;;;;;28.60;90.30;;;;;;5073880;28;20420;-83
2023/06/12 08:34:14;;;;;;;;;;;27.10;92.40;;;;;;5073535;28;19908;-82
2023/06/12 08:36:41;;;;;;;;;;;27.30;92.30;;;;;;5056499;28;19912;-83
2023/06/12 08:39:07;;;;;;;;;;;28.10;92.10;;;;;;5073684;28;19930;-83
2023/06/12 08:41:34;;;;;;;;;;;28.00;91.20;;;;;;5073337;28;19909;-84
2023/06/12 08:44:00;;;;;;;;;;;28.80;90.10;;;;;;5072805;28;20351;-81
2023/06/12 08:46:31;;;;;;;;;;;29.60;89.30;;;;;;5073740;28;19908;-81
2023/06/12 08:49:00;;;;;;;;;;;29.20;88.50;;;;;;5065197;28;19933;-82
2023/06/12 08:51:26;;;;;;;;;;;29.20;87.70;;;;;;5072926;28;19916;-82
2023/06/12 08:54:11;;;;;;;;;;;28.90;87.70;;;;;;5079134;28;19915;-81
2023/06/12 08:57:05;;;;;;;;;;;29.40;88.10;;;;;;5068723;28;20375;-82
2023/06/12 08:59:30;;;;;;;;;;;28.60;87.00;;;;;;5049466;28;19914;-82
2023/06/12 09:01:56;;;;;;;;;;;28.60;87.00;;;;;;5053321;28;19904;-82
2023/06/12 09:04:59;;;;;;;;;;;28.30;85.50;;;;;;5072218;28;19908;-83
2023/06/12 09:07:25;;;;;;;;;;;28.00;85.30;;;;;;5077211;28;19957;-82
2023/06/12 09:09:51;;;;;;;;;;;28.50;85.20;;;;;;5078859;28;20279;-82
2023/06/12 09:12:16;;;;;;;;;;;29.00;81.10;;;;;;5072091;28;19916;-81
2023/06/12 09:14:54;;;;;;;;;;;29.00;80.30;;;;;;5056235;28;19914;-82
2023/06/12 09:17:25;;;;;;;;;;;28.50;83.10;;;;;;5068616;28;19908;-82
2023/06/12 09:19:51;;;;;;;;;;;28.60;84.10;;;;;;5074567;28;20366;-82
2023/06/12 09:22:16;;;;;;;;;;;27.10;84.50;;;;;;5072129;28;19916;-82
2023/06/12 09:24:48;;;;;;;;;;;27.00;84.40;;;;;;5073346;28;19916;-82
2023/06/12 09:27:14;;;;;;;;;;;28.00;80.90;;;;;;5071744;28;19939;-82
2023/06/12 09:29:40;;;;;;;;;;;28.50;76.70;;;;;;5072428;28;19956;-82
2023/06/12 09:32:07;;;;;;;;;;;29.20;75.40;;;;;;5086692;28;20010;-82
2023/06/12 09:34:33;;;;;;;;;;;29.00;72.10;;;;;;5055412;28;20065;-82
2023/06/12 09:37:00;;;;;;;;;;;28.70;73.40;;;;;;5072101;28;19921;-82
2023/06/12 09:39:28;;;;;;;;;;;28.40;75.60;;;;;;5079651;28;20249;-83
2023/06/12 09:41:54;;;;;;;;;;;28.30;72.70;;;;;;5068994;28;19958;-83
2023/06/12 09:44:28;;;;;;;;;;;28.80;74.20;;;;;;5071276;28;20343;-84
2023/06/12 09:47:02;;;;;;;;;;;29.70;71.40;;;;;;5060302;28;19915;-83
2023/06/12 09:49:28;;;;;;;;;;;29.90;71.40;;;;;;5069742;28;19908;-83
2023/06/12 09:51:54;;;;;;;;;;;30.80;70.10;;;;;;5092213;28;19919;-83
2023/06/12 09:54:22;;;;;;;;;;;30.90;65.10;;;;;;5073881;28;19915;-83
2023/06/12 09:56:51;;;;;;;;;;;31.00;65.10;;;;;;5099376;28;20007;-83
2023/06/12 09:59:18;;;;;;;;;;;31.50;63.20;;;;;;5058163;28;19916;-83
2023/06/12 10:02:01;;;;;;;;;;;31.10;64.90;;;;;;5064623;28;19957;-83
2023/06/12 10:04:31;;;;;;;;;;;30.90;63.80;;;;;;5071810;28;19909;-82
2023/06/12 10:07:11;;;;;;;;;;;30.60;64.00;;;;;;5097699;28;19908;-81
2023/06/12 10:09:37;;;;;;;;;;;29.70;64.40;;;;;;5076315;28;19931;-83
2023/06/12 10:12:03;;;;;;;;;;;29.10;65.60;;;;;;5082046;28;19919;-82
2023/06/12 10:14:29;;;;;;;;;;;28.80;66.50;;;;;;5077571;28;19916;-82
2023/06/12 10:16:56;;;;;;;;;;;28.80;67.20;;;;;;5074917;28;19908;-82
2023/06/12 10:19:24;;;;;;;;;;;28.30;66.60;;;;;;5071630;28;20386;-83
2023/06/12 10:21:52;;;;;;;;;;;27.80;67.20;;;;;;5071462;28;19908;-82
2023/06/12 10:24:18;;;;;;;;;;;27.20;68.40;;;;;;5052127;28;19916;-83
2023/06/12 10:26:43;;;;;;;;;;;27.00;68.10;;;;;;5065640;28;19909;-83
2023/06/12 10:29:28;;;;;;;;;;;26.70;67.30;;;;;;5054277;28;19995;-83
2023/06/12 10:31:53;;;;;;;;;;;27.00;68.70;;;;;;5054574;28;19950;-83
2023/06/12 10:34:20;;;;;;;;;;;27.30;68.40;;;;;;5070804;28;19970;-83
2023/06/12 10:37:10;;;;;;;;;;;27.20;67.90;;;;;;5054381;28;19977;-81
2023/06/12 10:39:36;;;;;;;;;;;27.30;68.40;;;;;;5067301;28;19965;-82
2023/06/12 10:42:06;;;;;;;;;;;27.10;66.70;;;;;;5056091;28;20421;-82
2023/06/12 10:44:42;;;;;;;;;;;26.90;67.00;;;;;;5054918;28;19915;-81
2023/06/12 10:47:21;;;;;;;;;;;26.50;65.40;;;;;;5060785;28;19912;-82
2023/06/12 10:50:03;;;;;;;;;;;26.40;64.40;;;;;;5055392;28;19935;-82
2023/06/12 10:52:29;;;;;;;;;;;26.80;64.80;;;;;;5064054;28;19923;-82
2023/06/12 10:55:15;;;;;;;;;;;27.20;62.10;;;;;;5071872;28;20364;-82
2023/06/12 10:58:11;;;;;;;;;;;27.10;63.40;;;;;;5063798;28;19908;-82
2023/06/12 11:00:51;;;;;;;;;;;27.70;62.20;;;;;;5050918;28;19952;-82
2023/06/12 11:03:21;;;;;;;;;;;28.40;61.20;;;;;;5090525;28;19923;-83
2023/06/12 11:05:50;;;;;;;;;;;28.60;59.50;;;;;;5083019;28;19912;-81
2023/06/12 11:08:16;;;;;;;;;;;28.80;60.10;;;;;;5079194;28;20375;-84
2023/06/12 11:11:00;;;;;;;;;;;29.10;58.70;;;;;;5065425;28;19974;-83
2023/06/12 11:13:57;;;;;;;;;;;29.10;60.10;;;;;;5060159;28;20371;-83
2023/06/12 11:16:26;;;;;;;;;;;28.30;62.70;;;;;;5061691;28;19915;-83
2023/06/12 11:19:06;;;;;;;;;;;28.00;62.60;;;;;;5072096;28;20541;-83
2023/06/12 11:21:32;;;;;;;;;;;27.60;60.80;;;;;;5052195;28;19908;-82
2023/06/12 11:24:04;;;;;;;;;;;26.90;63.70;;;;;;5078622;28;19939;-82
2023/06/12 11:26:31;;;;;;;;;;;27.10;64.20;;;;;;5067193;28;19952;-82
2023/06/12 11:29:11;;;;;;;;;;;27.00;64.00;;;;;;5070283;28;19994;-82
2023/06/12 11:31:37;;;;;;;;;;;27.40;65.30;;;;;;5062907;28;19916;-82
2023/06/12 11:34:04;;;;;;;;;;;27.90;64.10;;;;;;5087302;28;20314;-82
2023/06/12 11:36:29;;;;;;;;;;;27.80;64.60;;;;;;5061297;28;19912;-83
2023/06/12 11:38:55;;;;;;;;;;;27.50;64.40;;;;;;5070390;28;19908;-82
2023/06/12 11:41:21;;;;;;;;;;;27.70;65.10;;;;;;5069288;28;19915;-83
2023/06/12 11:43:47;;;;;;;;;;;27.40;66.00;;;;;;5087296;28;19908;-83
2023/06/12 11:46:13;;;;;;;;;;;28.00;63.60;;;;;;5080504;28;19908;-83
2023/06/12 11:49:06;;;;;;;;;;;28.20;62.10;;;;;;5066686;28;20268;-83
2023/06/12 11:51:32;;;;;;;;;;;27.80;63.50;;;;;;5077574;28;19912;-83
2023/06/12 11:53:59;;;;;;;;;;;27.60;63.10;;;;;;5060242;28;19909;-83
2023/06/12 11:56:25;;;;;;;;;;;26.90;66.30;;;;;;5097627;28;19915;-82
2023/06/12 11:58:51;;;;;;;;;;;26.80;66.60;;;;;;5053738;28;19909;-83
2023/06/12 12:01:23;;;;;;;;;;;27.30;65.80;;;;;;5094911;28;19912;-83
2023/06/12 12:03:49;;;;;;;;;;;27.10;65.50;;;;;;5083620;28;20476;-82
2023/06/12 12:06:41;;;;;;;;;;;27.50;64.70;;;;;;5073619;28;19948;-83
2023/06/12 12:09:12;;;;;;;;;;;27.50;64.80;;;;;;5066622;28;19958;-83
2023/06/12 12:11:38;;;;;;;;;;;27.80;64.10;;;;;;5063054;28;19927;-83
2023/06/12 12:14:04;;;;;;;;;;;28.00;63.20;;;;;;5061562;28;19912;-84
2023/06/12 12:16:40;;;;;;;;;;;28.10;66.00;;;;;;5067302;28;19912;-83
2023/06/12 12:19:15;;;;;;;;;;;27.90;66.10;;;;;;5076777;28;20006;-84
2023/06/12 12:21:43;;;;;;;;;;;27.60;65.50;;;;;;5077441;28;20283;-83
2023/06/12 12:24:09;;;;;;;;;;;27.60;66.90;;;;;;5072197;28;20014;-84
2023/06/12 12:26:41;;;;;;;;;;;28.20;66.10;;;;;;5082991;28;19973;-82
2023/06/12 12:29:11;;;;;;;;;;;28.60;63.40;;;;;;5066615;28;19908;-83
2023/06/12 12:31:37;;;;;;;;;;;29.00;65.90;;;;;;5087406;28;20031;-83
2023/06/12 12:34:03;;;;;;;;;;;29.10;65.30;;;;;;5071286;28;19933;-83
2023/06/12 12:36:28;;;;;;;;;;;29.90;62.40;;;;;;5066822;28;20003;-83
2023/06/12 12:38:54;;;;;;;;;;;30.80;65.30;;;;;;5061950;28;20341;-83
2023/06/12 12:41:20;;;;;;;;;;;31.10;59.10;;;;;;5072646;28;19962;-83
2023/06/12 12:43:45;;;;;;;12.20;6.30;;;32.00;60.50;;;;;;5062167;28;20402;-83
2023/06/12 12:46:11;;;;;;;13.77;6.07;;;32.10;59.60;;;;;;5086555;28;20035;-83
2023/06/12 12:48:38;;;;;;;;;;;32.40;58.20;;;;;;5079356;28;20035;-84
2023/06/12 12:51:04;;;;;;;;;;;33.40;57.70;;;;;;5081108;28;19908;-84
2023/06/12 12:53:30;;;;;;;;;;;33.80;56.40;;;;;;5077661;28;20017;-83
2023/06/12 12:55:56;;;;;;;;;;;33.80;55.80;;;;;;5074018;28;19982;-83
2023/06/12 12:58:21;;;;;;;;;;;32.90;55.00;;;;;;5057492;28;20007;-83
2023/06/12 13:00:47;;;;;;;;;;;32.40;57.10;;;;;;5072920;28;20305;-83
2023/06/12 13:03:13;;;;;;;;;;;32.50;56.90;;;;;;5072223;28;19908;-84
2023/06/12 13:05:38;;;;;;;;;;;32.60;57.50;;;;;;5055762;28;19916;-83
2023/06/12 13:08:04;;;;;;;;;;;32.80;58.40;;;;;;5056112;28;19916;-83
2023/06/12 13:10:29;;;;;;;;;;;31.40;58.50;;;;;;5072716;28;19948;-83
2023/06/12 13:12:56;;;;;;;;;;;31.00;61.00;;;;;;5055748;28;19912;-83
2023/06/12 13:15:21;;;;;;;;;;;31.00;58.90;;;;;;5072603;28;19991;-82
2023/06/12 13:17:47;;;;;;;;;;;30.90;59.00;;;;;;5055815;28;19974;-83
2023/06/12 13:20:13;;;;;;;;;;;31.90;57.00;;;;;;5072259;28;20371;-82
2023/06/12 13:22:38;;;;;;;;;;;32.30;56.70;;;;;;5070691;28;19927;-83
2023/06/12 13:25:05;;;;;;;;;;;32.50;56.40;;;;;;5068264;28;19908;-82
2023/06/12 13:27:31;;;;;;;;;;;31.70;57.10;;;;;;5072347;28;19957;-84
2023/06/12 13:29:56;;;;;;;;;;;31.40;58.90;;;;;;5072506;28;20364;-84
2023/06/12 13:32:22;;;;;;;;;;;31.00;59.20;;;;;;5071592;28;19912;-84
2023/06/12 13:34:47;;;;;;;;;;;30.70;58.30;;;;;;5072590;28;19963;-83
2023/06/12 13:37:19;;;;;;;;;;;30.10;58.80;;;;;;5072413;28;19909;-84
2023/06/12 13:39:45;;;;;;;6.50;5.90;;;29.70;58.80;;;;;;5054994;28;19951;-83
2023/06/12 13:42:11;;;;;;;7.88;6.75;;;28.50;60.00;;;;;;5071558;28;20475;-84
2023/06/12 13:44:37;;;;;;;8.80;6.28;;;28.40;60.60;;;;;;5071179;28;20017;-84
2023/06/12 13:47:03;;;;;;;7.85;6.80;;;29.50;60.00;;;;;;5066294;28;20055;-82
2023/06/12 13:49:28;;;;;;;6.32;5.72;;;30.70;59.50;;;;;;5074366;28;20435;-85
2023/06/12 13:51:54;;;;;;;10.43;5.70;;;31.40;58.20;;;;;;5050662;28;20167;-84
2023/06/12 13:54:19;;;;;;;7.15;6.55;;;31.50;59.10;;;;;;5054327;28;20028;-84
2023/06/12 13:56:45;;;;;;;10.25;5.70;;;31.10;57.60;;;;;;5054701;28;20036;-84
2023/06/12 13:59:12;;;;;;;7.65;6.40;;;31.00;57.40;;;;;;5054626;28;20027;-85
2023/06/12 14:01:38;;;;;;;8.20;6.10;;;29.90;57.30;;;;;;5054732;28;20024;-83
2023/06/12 14:04:04;;;;;;;13.75;6.15;;;29.50;59.10;;;;;;5070252;28;20032;-83
2023/06/12 14:06:30;;;;;;;7.35;6.03;;;29.50;59.10;;;;;;5072098;28;20082;-82
2023/06/12 14:08:57;;;;;;;6.53;5.85;;;29.80;58.80;;;;;;5054331;28;20028;-82
2023/06/12 14:11:23;;;;;;;10.63;5.75;;;30.10;57.20;;;;;;5070654;28;20051;-83
2023/06/12 14:13:49;;;;;;;7.18;5.82;;;30.70;56.30;;;;;;5054124;28;20067;-82
2023/06/12 14:16:17;;;;;;;12.80;5.75;;;30.10;56.20;;;;;;5087788;28;20039;-83
2023/06/12 14:18:43;;;;;;;7.95;6.05;;;30.40;56.10;;;;;;5054299;28;20035;-83
2023/06/12 14:21:11;;;;;;;11.57;6.10;;;30.20;56.90;;;;;;5070850;28;20040;-83
2023/06/12 14:23:39;;;;;;;8.57;5.53;;;30.40;56.70;;;;;;5070622;28;20484;-84
2023/06/12 14:26:05;;;;;;;15.43;6.93;;;30.00;56.40;;;;;;5055833;28;20039;-83
2023/06/12 14:28:30;;;;;;;8.48;5.97;;;30.80;55.70;;;;;;5071446;28;20028;-84